Portada
METAR-TAF:

METAR-TAF

Aeroports :

Yap, Micronèsia

latitud: 09-29N, longitud: 138-05E, altitud: 28 m

Observació

L'informe es va fer fa 45 minuts, a les 02:54 UTC
Vent 3 kt amb direcció variable
Temperatura 30°C
Humitat 70%
Pressió 1010 hPa
Visibilitat: 19.3 km
Escasses núvols a una alçada de 1600 ft
Núvols disperses a una alçada de 13000 ft
Cel ennuvolat a una alçada de 30000 ft

METAR: PTYA 180254Z VRB03KT 12SM FEW016 SCT130 BKN300 30/24 A2983 RMK SLP101 60000 8/171 T02960241 57019

Hora: 13:39 (03:39 UTC)

Pronòstic

L'informe es va fer fa 4 hores i 0 minuts, a les 23:39 UTC
Pronòstic vàlid del 18 a les 00 UTC al 18 a les 24 UTC
Vent 11 kt del Sud-Oest
Visibilitat: 10 km
Núvols disperses a una alçada de 1600 ft
Cel ennuvolat a una alçada de 12000 ft
xàfecs en les proximitats

TAF: PTYA 172339Z 1800/1824 23011KT P6SM VCSH SCT016 BKN120

Observacions i pronòstics meteorològics de més de 4000 aeroports (METAR i TAF).

Les estacions disponibles són els punts grocs i vermells al mapa.

Posi el ratolí al punt desitjat per veure el nom de l'estació.

Feu clic per veure les observacions i els pronòstics meteorològics.

Per canviar el mapa: feu clic els botons verds amb una creu de color negre per apropar; al botó verd amb un guió per allunyar la imatge; o en les fletxes verdes per a mapes adjacents.


METAR-TAF: